sensor_id;sensor_type;location;lat;lon;timestamp;pressure;altitude;pressure_sealevel;temperature;humidity
52927;BME280;40783;49.710;8.842;2023-04-02T00:07:32;98219.97;;;8.26;100.00
52927;BME280;40783;49.710;8.842;2023-04-02T00:09:57;98218.31;;;8.25;100.00
52927;BME280;40783;49.710;8.842;2023-04-02T00:12:23;98220.47;;;8.29;100.00
52927;BME280;40783;49.710;8.842;2023-04-02T00:14:49;98222.66;;;8.26;100.00
52927;BME280;40783;49.710;8.842;2023-04-02T00:17:16;98226.13;;;8.35;100.00
52927;BME280;40783;49.710;8.842;2023-04-02T00:19:45;98229.97;;;8.32;100.00
52927;BME280;40783;49.710;8.842;2023-04-02T00:22:15;98235.97;;;8.26;100.00
52927;BME280;40783;49.710;8.842;2023-04-02T00:24:41;98232.63;;;8.32;100.00
52927;BME280;40783;49.710;8.842;2023-04-02T00:27:09;98229.97;;;8.32;100.00
52927;BME280;40783;49.710;8.842;2023-04-02T00:29:35;98240.97;;;8.29;100.00
52927;BME280;40783;49.710;8.842;2023-04-02T00:32:00;98249.94;;;8.28;100.00
52927;BME280;40783;49.710;8.842;2023-04-02T00:34:35;98238.97;;;8.31;100.00
52927;BME280;40783;49.710;8.842;2023-04-02T00:37:01;98246.28;;;8.29;100.00
52927;BME280;40783;49.710;8.842;2023-04-02T00:39:28;98240.28;;;8.27;100.00
52927;BME280;40783;49.710;8.842;2023-04-02T00:41:57;98251.28;;;8.32;100.00
52927;BME280;40783;49.710;8.842;2023-04-02T00:45:03;98260.28;;;8.39;100.00
52927;BME280;40783;49.710;8.842;2023-04-02T00:47:30;98243.28;;;8.24;100.00
52927;BME280;40783;49.710;8.842;2023-04-02T00:50:00;98245.63;;;8.19;100.00
52927;BME280;40783;49.710;8.842;2023-04-02T00:52:30;98243.28;;;8.24;100.00
52927;BME280;40783;49.710;8.842;2023-04-02T00:55:02;98246.94;;;8.23;100.00
52927;BME280;40783;49.710;8.842;2023-04-02T00:57:29;98242.28;;;8.16;100.00
52927;BME280;40783;49.710;8.842;2023-04-02T01:02:28;98248.25;;;8.10;100.00
52927;BME280;40783;49.710;8.842;2023-04-02T01:04:57;98246.94;;;8.23;100.00
52927;BME280;40783;49.710;8.842;2023-04-02T01:07:27;98249.44;;;8.24;100.00
52927;BME280;40783;49.710;8.842;2023-04-02T01:12:27;98253.09;;;8.23;100.00
52927;BME280;40783;49.710;8.842;2023-04-02T01:24:55;98260.25;;;8.23;100.00
52927;BME280;40783;49.710;8.842;2023-04-02T01:29:52;98263.59;;;8.16;100.00
52927;BME280;40783;49.710;8.842;2023-04-02T01:32:22;98278.41;;;8.19;100.00
52927;BME280;40783;49.710;8.842;2023-04-02T01:34:48;98275.56;;;8.12;100.00
52927;BME280;40783;49.710;8.842;2023-04-02T01:45:31;98286.06;;;8.14;100.00
52927;BME280;40783;49.710;8.842;2023-04-02T01:47:58;98279.72;;;8.07;100.00
52927;BME280;40783;49.710;8.842;2023-04-02T01:50:30;98284.22;;;8.14;100.00
52927;BME280;40783;49.710;8.842;2023-04-02T01:53:01;98281.22;;;8.09;100.00
52927;BME280;40783;49.710;8.842;2023-04-02T01:55:32;98283.91;;;8.17;100.00
52927;BME280;40783;49.710;8.842;2023-04-02T01:57:58;98297.22;;;8.17;100.00
52927;BME280;40783;49.710;8.842;2023-04-02T02:00:26;98291.19;;;8.07;100.00
52927;BME280;40783;49.710;8.842;2023-04-02T02:02:57;98295.19;;;8.03;100.00
52927;BME280;40783;49.710;8.842;2023-04-02T02:05:26;98300.19;;;8.14;100.00
52927;BME280;40783;49.710;8.842;2023-04-02T02:07:54;98301.19;;;8.13;100.00
52927;BME280;40783;49.710;8.842;2023-04-02T02:10:25;98301.53;;;8.10;100.00
52927;BME280;40783;49.710;8.842;2023-04-02T02:12:50;98305.19;;;8.09;100.00
52927;BME280;40783;49.710;8.842;2023-04-02T02:15:20;98309.16;;;8.05;100.00
52927;BME280;40783;49.710;8.842;2023-04-02T02:17:45;98307.84;;;8.09;100.00
52927;BME280;40783;49.710;8.842;2023-04-02T02:20:11;98311.84;;;8.13;100.00
52927;BME280;40783;49.710;8.842;2023-04-02T02:22:46;98312.19;;;8.10;100.00
52927;BME280;40783;49.710;8.842;2023-04-02T02:25:23;98316.19;;;8.14;100.00
52927;BME280;40783;49.710;8.842;2023-04-02T02:27:52;98319.16;;;8.11;100.00
52927;BME280;40783;49.710;8.842;2023-04-02T02:31:05;98322.19;;;8.16;100.00
52927;BME280;40783;49.710;8.842;2023-04-02T02:33:26;98321.84;;;8.20;100.00
52927;BME280;40783;49.710;8.842;2023-04-02T02:36:03;98321.03;;;8.19;100.00
52927;BME280;40783;49.710;8.842;2023-04-02T02:41:17;98323.69;;;8.19;100.00
52927;BME280;40783;49.710;8.842;2023-04-02T02:44:04;98334.81;;;8.14;100.00
52927;BME280;40783;49.710;8.842;2023-04-02T02:46:30;98331.84;;;8.17;100.00
52927;BME280;40783;49.710;8.842;2023-04-02T02:48:58;98338.81;;;8.10;100.00
52927;BME280;40783;49.710;8.842;2023-04-02T02:51:37;98340.16;;;8.14;100.00
52927;BME280;40783;49.710;8.842;2023-04-02T02:54:03;98345.00;;;8.19;100.00
52927;BME280;40783;49.710;8.842;2023-04-02T02:56:29;98345.13;;;8.09;100.00
52927;BME280;40783;49.710;8.842;2023-04-02T02:58:57;98349.28;;;8.04;100.00
52927;BME280;40783;49.710;8.842;2023-04-02T03:01:26;98345.13;;;8.09;100.00
52927;BME280;40783;49.710;8.842;2023-04-02T03:03:52;98354.78;;;8.10;100.00
52927;BME280;40783;49.710;8.842;2023-04-02T03:06:18;98357.13;;;8.13;100.00
52927;BME280;40783;49.710;8.842;2023-04-02T03:08:50;98363.44;;;8.12;100.00
52927;BME280;40783;49.710;8.842;2023-04-02T03:11:22;98365.75;;;8.07;100.00
52927;BME280;40783;49.710;8.842;2023-04-02T03:13:50;98368.78;;;8.12;100.00
52927;BME280;40783;49.710;8.842;2023-04-02T03:16:33;98365.13;;;8.13;100.00
52927;BME280;40783;49.710;8.842;2023-04-02T03:23:58;98379.56;;;8.02;100.00
52927;BME280;40783;49.710;8.842;2023-04-02T03:26:30;98390.69;;;7.98;100.00
52927;BME280;40783;49.710;8.842;2023-04-02T03:29:02;98383.38;;;8.00;100.00
52927;BME280;40783;49.710;8.842;2023-04-02T03:33:57;98385.88;;;8.01;100.00
52927;BME280;40783;49.710;8.842;2023-04-02T03:36:33;98386.34;;;7.97;100.00
52927;BME280;40783;49.710;8.842;2023-04-02T03:41:38;98396.69;;;8.00;100.00
52927;BME280;40783;49.710;8.842;2023-04-02T03:44:06;98404.38;;;8.11;100.00
52927;BME280;40783;49.710;8.842;2023-04-02T03:46:40;98407.72;;;8.13;100.00
52927;BME280;40783;49.710;8.842;2023-04-02T03:49:10;98405.72;;;8.15;100.00
52927;BME280;40783;49.710;8.842;2023-04-02T03:51:45;98408.69;;;8.04;100.00
52927;BME280;40783;49.710;8.842;2023-04-02T03:54:14;98412.66;;;8.00;100.00
52927;BME280;40783;49.710;8.842;2023-04-02T03:56:43;98411.69;;;8.09;100.00
52927;BME280;40783;49.710;8.842;2023-04-02T04:01:52;98418.38;;;8.13;100.00
52927;BME280;40783;49.710;8.842;2023-04-02T04:04:19;98419.72;;;8.17;100.00
52927;BME280;40783;49.710;8.842;2023-04-02T04:06:46;98423.91;;;8.20;100.00
52927;BME280;40783;49.710;8.842;2023-04-02T04:09:32;98431.34;;;8.08;100.00
52927;BME280;40783;49.710;8.842;2023-04-02T04:15:06;98440.31;;;8.07;100.00
52927;BME280;40783;49.710;8.842;2023-04-02T04:17:48;98433.00;;;8.09;100.00
52927;BME280;40783;49.710;8.842;2023-04-02T04:20:19;98440.84;;;8.11;100.00
52927;BME280;40783;49.710;8.842;2023-04-02T04:22:49;98441.34;;;8.14;100.00
52927;BME280;40783;49.710;8.842;2023-04-02T04:25:28;98446.03;;;8.21;100.00
52927;BME280;40783;49.710;8.842;2023-04-02T04:30:48;98452.22;;;8.21;100.00
52927;BME280;40783;49.710;8.842;2023-04-02T04:33:16;98453.84;;;8.22;100.00
52927;BME280;40783;49.710;8.842;2023-04-02T04:35:56;98461.38;;;8.27;100.00
52927;BME280;40783;49.710;8.842;2023-04-02T04:38:29;98465.03;;;8.26;100.00
52927;BME280;40783;49.710;8.842;2023-04-02T04:40:59;98472.16;;;8.17;100.00
52927;BME280;40783;49.710;8.842;2023-04-02T04:46:15;98470.03;;;8.29;100.00
52927;BME280;40783;49.710;8.842;2023-04-02T04:49:42;98481.34;;;8.23;100.00
52927;BME280;40783;49.710;8.842;2023-04-02T04:54:11;98483.38;;;8.29;100.00
52927;BME280;40783;49.710;8.842;2023-04-02T04:56:37;98486.34;;;8.26;100.00
52927;BME280;40783;49.710;8.842;2023-04-02T05:06:39;98506.31;;;8.22;100.00
52927;BME280;40783;49.710;8.842;2023-04-02T05:12:36;98510.59;;;8.14;100.00
52927;BME280;40783;49.710;8.842;2023-04-02T05:17:15;98508.28;;;8.20;100.00
52927;BME280;40783;49.710;8.842;2023-04-02T05:19:50;98519.44;;;8.23;100.00
52927;BME280;40783;49.710;8.842;2023-04-02T05:22:43;98519.66;;;8.30;100.00
52927;BME280;40783;49.710;8.842;2023-04-02T05:25:26;98522.69;;;8.35;100.00
52927;BME280;40783;49.710;8.842;2023-04-02T05:27:55;98530.69;;;8.35;100.00
52927;BME280;40783;49.710;8.842;2023-04-02T05:35:21;98539.63;;;8.26;100.00
52927;BME280;40783;49.710;8.842;2023-04-02T05:37:51;98542.97;;;8.28;100.00
52927;BME280;40783;49.710;8.842;2023-04-02T05:40:20;98547.13;;;8.30;100.00
52927;BME280;40783;49.710;8.842;2023-04-02T05:42:48;98553.81;;;8.35;100.00
52927;BME280;40783;49.710;8.842;2023-04-02T05:45:30;98554.34;;;8.38;100.00
52927;BME280;40783;49.710;8.842;2023-04-02T05:47:57;98556.84;;;8.40;100.00
52927;BME280;40783;49.710;8.842;2023-04-02T05:50:27;98557.38;;;8.43;100.00
52927;BME280;40783;49.710;8.842;2023-04-02T05:53:05;98562.84;;;8.42;100.00
52927;BME280;40783;49.710;8.842;2023-04-02T05:58:05;98569.38;;;8.48;100.00
52927;BME280;40783;49.710;8.842;2023-04-02T06:03:15;98574.41;;;8.51;100.00
52927;BME280;40783;49.710;8.842;2023-04-02T06:05:41;98581.94;;;8.55;100.00
52927;BME280;40783;49.710;8.842;2023-04-02T06:08:10;98583.44;;;8.58;100.00
52927;BME280;40783;49.710;8.842;2023-04-02T06:10:41;98588.63;;;8.59;100.00
52927;BME280;40783;49.710;8.842;2023-04-02T06:13:10;98597.28;;;8.61;100.00
52927;BME280;40783;49.710;8.842;2023-04-02T06:15:43;98594.25;;;8.56;100.00
52927;BME280;40783;49.710;8.842;2023-04-02T06:20:37;98607.72;;;8.55;100.00
52927;BME280;40783;49.710;8.842;2023-04-02T06:23:08;98607.09;;;8.61;100.00
52927;BME280;40783;49.710;8.842;2023-04-02T06:25:37;98602.63;;;8.61;100.00
52927;BME280;40783;49.710;8.842;2023-04-02T06:28:05;98607.09;;;8.61;100.00
52927;BME280;40783;49.710;8.842;2023-04-02T06:30:36;98616.09;;;8.60;100.00
52927;BME280;40783;49.710;8.842;2023-04-02T06:33:03;98621.09;;;8.63;100.00
52927;BME280;40783;49.710;8.842;2023-04-02T06:35:28;98620.47;;;8.69;100.00
52927;BME280;40783;49.710;8.842;2023-04-02T06:37:54;98623.47;;;8.66;100.00
52927;BME280;40783;49.710;8.842;2023-04-02T06:42:55;98633.75;;;8.61;100.00
52927;BME280;40783;49.710;8.842;2023-04-02T06:45:25;98639.41;;;8.58;100.00
52927;BME280;40783;49.710;8.842;2023-04-02T06:47:52;98641.78;;;8.69;100.00
52927;BME280;40783;49.710;8.842;2023-04-02T06:50:26;98651.84;;;8.75;100.00
52927;BME280;40783;49.710;8.842;2023-04-02T06:52:56;98652.81;;;8.74;100.00
52927;BME280;40783;49.710;8.842;2023-04-02T06:58:18;98661.50;;;8.76;100.00
52927;BME280;40783;49.710;8.842;2023-04-02T07:00:44;98668.19;;;8.81;100.00
52927;BME280;40783;49.710;8.842;2023-04-02T07:03:20;98666.88;;;8.85;100.00
52927;BME280;40783;49.710;8.842;2023-04-02T07:05:49;98678.19;;;8.79;100.00
52927;BME280;40783;49.710;8.842;2023-04-02T07:08:17;98670.53;;;8.84;100.00
52927;BME280;40783;49.710;8.842;2023-04-02T07:10:45;98674.25;;;8.91;100.00
52927;BME280;40783;49.710;8.842;2023-04-02T07:13:16;98685.78;;;9.00;100.00
52927;BME280;40783;49.710;8.842;2023-04-02T07:15:46;98687.75;;;8.98;100.00
52927;BME280;40783;49.710;8.842;2023-04-02T07:18:25;98696.94;;;9.03;100.00
52927;BME280;40783;49.710;8.842;2023-04-02T07:20:51;98694.97;;;9.05;100.00
52927;BME280;40783;49.710;8.842;2023-04-02T07:23:18;98701.16;;;9.06;100.00
52927;BME280;40783;49.710;8.842;2023-04-02T07:25:45;98706.03;;;9.19;100.00
52927;BME280;40783;49.710;8.842;2023-04-02T07:28:13;98713.34;;;9.17;100.00
52927;BME280;40783;49.710;8.842;2023-04-02T07:30:39;98716.56;;;9.29;100.00
52927;BME280;40783;49.710;8.842;2023-04-02T07:33:08;98721.06;;;9.28;100.00
52927;BME280;40783;49.710;8.842;2023-04-02T07:35:34;98724.09;;;9.33;100.00
52927;BME280;40783;49.710;8.842;2023-04-02T07:37:59;98724.25;;;9.24;100.00
52927;BME280;40783;49.710;8.842;2023-04-02T07:40:27;98732.31;;;9.05;100.00
52927;BME280;40783;49.710;8.842;2023-04-02T07:42:52;98734.81;;;9.07;100.00
52927;BME280;40783;49.710;8.842;2023-04-02T07:45:17;98737.09;;;9.28;100.00
52927;BME280;40783;49.710;8.842;2023-04-02T07:47:45;98737.47;;;9.42;100.00
52927;BME280;40783;49.710;8.842;2023-04-02T07:50:10;98739.88;;;9.53;100.00
52927;BME280;40783;49.710;8.842;2023-04-02T07:52:39;98736.53;;;9.51;100.00
52927;BME280;40783;49.710;8.842;2023-04-02T07:55:06;98744.84;;;9.48;100.00
52927;BME280;40783;49.710;8.842;2023-04-02T07:57:31;98751.50;;;9.44;100.00
52927;BME280;40783;49.710;8.842;2023-04-02T07:59:56;98749.78;;;9.34;100.00
52927;BME280;40783;49.710;8.842;2023-04-02T08:02:24;98757.81;;;9.34;100.00
52927;BME280;40783;49.710;8.842;2023-04-02T08:04:50;98765.53;;;9.46;100.00
52927;BME280;40783;49.710;8.842;2023-04-02T08:07:16;98766.56;;;9.53;100.00
52927;BME280;40783;49.710;8.842;2023-04-02T08:09:41;98763.41;;;9.58;100.00
52927;BME280;40783;49.710;8.842;2023-04-02T08:12:08;98766.25;;;9.64;100.00
52927;BME280;40783;49.710;8.842;2023-04-02T08:14:33;98776.41;;;9.61;100.00
52927;BME280;40783;49.710;8.842;2023-04-02T08:16:58;98781.91;;;9.59;100.00
52927;BME280;40783;49.710;8.842;2023-04-02T08:19:23;98786.91;;;9.62;100.00
52927;BME280;40783;49.710;8.842;2023-04-02T08:21:49;98795.59;;;9.64;100.00
52927;BME280;40783;49.710;8.842;2023-04-02T08:24:19;98794.66;;;9.74;100.00
52927;BME280;40783;49.710;8.842;2023-04-02T08:26:45;98800.00;;;9.74;100.00
52927;BME280;40783;49.710;8.842;2023-04-02T08:29:11;98800.00;;;9.74;100.00
52927;BME280;40783;49.710;8.842;2023-04-02T08:31:38;98810.38;;;9.85;100.00
52927;BME280;40783;49.710;8.842;2023-04-02T08:34:03;98807.06;;;9.91;100.00
52927;BME280;40783;49.710;8.842;2023-04-02T08:36:29;98807.41;;;9.97;100.00
52927;BME280;40783;49.710;8.842;2023-04-02T08:38:57;98811.78;;;10.06;100.00
52927;BME280;40783;49.710;8.842;2023-04-02T08:41:25;98815.75;;;9.93;100.00
52927;BME280;40783;49.710;8.842;2023-04-02T08:49:11;98823.16;;;10.24;100.00
52927;BME280;40783;49.710;8.842;2023-04-02T08:51:38;98820.84;;;10.30;100.00
52927;BME280;40783;49.710;8.842;2023-04-02T08:54:10;98829.88;;;10.37;100.00
52927;BME280;40783;49.710;8.842;2023-04-02T08:56:39;98829.19;;;10.27;100.00
52927;BME280;40783;49.710;8.842;2023-04-02T09:01:54;98835.84;;;10.22;100.00
52927;BME280;40783;49.710;8.842;2023-04-02T09:04:26;98841.75;;;10.43;100.00
52927;BME280;40783;49.710;8.842;2023-04-02T09:06:55;98846.72;;;10.37;100.00
52927;BME280;40783;49.710;8.842;2023-04-02T09:09:23;98844.28;;;10.44;100.00
52927;BME280;40783;49.710;8.842;2023-04-02T09:14:37;98859.34;;;10.70;100.00
52927;BME280;40783;49.710;8.842;2023-04-02T09:17:10;98863.03;;;10.86;100.00
52927;BME280;40783;49.710;8.842;2023-04-02T09:19:42;98866.19;;;10.97;100.00
52927;BME280;40783;49.710;8.842;2023-04-02T09:22:30;98877.25;;;10.78;100.00
52927;BME280;40783;49.710;8.842;2023-04-02T09:24:57;98890.53;;;9.93;100.00
52927;BME280;40783;49.710;8.842;2023-04-02T09:27:27;98898.34;;;9.52;100.00
52927;BME280;40783;49.710;8.842;2023-04-02T09:43:09;98927.56;;;8.55;100.00
52927;BME280;40783;49.710;8.842;2023-04-02T09:45:35;98926.50;;;8.66;100.00
52927;BME280;40783;49.710;8.842;2023-04-02T09:48:01;98934.03;;;8.70;100.00
52927;BME280;40783;49.710;8.842;2023-04-02T09:50:30;98936.94;;;8.77;100.00
52927;BME280;40783;49.710;8.842;2023-04-02T09:52:56;98942.97;;;8.97;100.00
52927;BME280;40783;49.710;8.842;2023-04-02T09:55:26;98940.63;;;8.94;100.00
52927;BME280;40783;49.710;8.842;2023-04-02T09:58:14;98941.31;;;8.96;100.00
52927;BME280;40783;49.710;8.842;2023-04-02T10:00:38;98949.66;;;9.01;100.00
52927;BME280;40783;49.710;8.842;2023-04-02T10:05:30;98959.97;;;9.14;100.00
52927;BME280;40783;49.710;8.842;2023-04-02T10:08:04;98964.13;;;9.17;100.00
52927;BME280;40783;49.710;8.842;2023-04-02T10:10:39;98969.00;;;9.03;100.00
52927;BME280;40783;49.710;8.842;2023-04-02T10:13:16;98978.16;;;8.83;100.00
52927;BME280;40783;49.710;8.842;2023-04-02T10:15:49;98988.50;;;8.40;100.00
52927;BME280;40783;49.710;8.842;2023-04-02T10:18:20;98998.63;;;8.36;100.00
52927;BME280;40783;49.710;8.842;2023-04-02T10:20:48;99008.69;;;8.42;100.00
52927;BME280;40783;49.710;8.842;2023-04-02T10:23:17;99004.81;;;8.27;100.00
52927;BME280;40783;49.710;8.842;2023-04-02T10:25:54;99016.88;;;8.31;100.00
52927;BME280;40783;49.710;8.842;2023-04-02T10:31:22;99024.22;;;8.19;100.00
52927;BME280;40783;49.710;8.842;2023-04-02T10:33:49;99038.53;;;8.08;100.00
52927;BME280;40783;49.710;8.842;2023-04-02T10:39:06;99042.75;;;8.11;100.00
52927;BME280;40783;49.710;8.842;2023-04-02T10:41:40;99045.56;;;7.99;100.00
52927;BME280;40783;49.710;8.842;2023-04-02T10:51:40;99064.94;;;7.92;100.00
52927;BME280;40783;49.710;8.842;2023-04-02T10:56:45;99076.28;;;7.94;100.00
52927;BME280;40783;49.710;8.842;2023-04-02T10:59:21;99085.41;;;7.91;100.00
52927;BME280;40783;49.710;8.842;2023-04-02T11:01:47;99092.13;;;7.85;100.00
52927;BME280;40783;49.710;8.842;2023-04-02T11:04:16;99087.91;;;7.83;100.00
52927;BME280;40783;49.710;8.842;2023-04-02T11:06:59;99092.97;;;7.86;100.00
52927;BME280;40783;49.710;8.842;2023-04-02T11:09:26;99098.59;;;7.93;100.00
52927;BME280;40783;49.710;8.842;2023-04-02T11:11:54;99100.22;;;8.04;100.00
52927;BME280;40783;49.710;8.842;2023-04-02T11:16:49;99100.94;;;7.86;100.00
52927;BME280;40783;49.710;8.842;2023-04-02T11:27:02;99128.00;;;7.81;100.00
52927;BME280;40783;49.710;8.842;2023-04-02T11:29:30;99130.53;;;7.83;100.00
52927;BME280;40783;49.710;8.842;2023-04-02T11:37:08;99141.16;;;7.83;100.00
52927;BME280;40783;49.710;8.842;2023-04-02T11:44:42;99148.72;;;7.97;100.00
52927;BME280;40783;49.710;8.842;2023-04-02T11:47:14;99153.50;;;7.94;100.00
52927;BME280;40783;49.710;8.842;2023-04-02T11:49:55;99160.53;;;7.95;100.00
52927;BME280;40783;49.710;8.842;2023-04-02T11:52:35;99164.97;;;8.04;100.00
52927;BME280;40783;49.710;8.842;2023-04-02T11:58:00;99182.38;;;7.59;100.00
52927;BME280;40783;49.710;8.842;2023-04-02T12:05:59;99181.78;;;7.55;100.00
52927;BME280;40783;49.710;8.842;2023-04-02T12:09:00;99195.97;;;7.15;100.00
52927;BME280;40783;49.710;8.842;2023-04-02T12:11:27;99196.31;;;7.32;100.00
52927;BME280;40783;49.710;8.842;2023-04-02T12:13:54;99199.81;;;7.42;100.00
52927;BME280;40783;49.710;8.842;2023-04-02T12:16:25;99196.88;;;7.45;100.00
52927;BME280;40783;49.710;8.842;2023-04-02T12:18:55;99198.28;;;7.30;100.00
52927;BME280;40783;49.710;8.842;2023-04-02T12:21:23;99209.63;;;7.32;100.00
52927;BME280;40783;49.710;8.842;2023-04-02T12:23:51;99206.38;;;7.28;100.00
52927;BME280;40783;49.710;8.842;2023-04-02T12:26:27;99213.69;;;7.36;100.00
52927;BME280;40783;49.710;8.842;2023-04-02T12:29:39;99222.06;;;7.31;100.00
52927;BME280;40783;49.710;8.842;2023-04-02T12:31:43;99223.72;;;7.22;100.00
52927;BME280;40783;49.710;8.842;2023-04-02T12:34:17;99222.22;;;7.30;100.00
52927;BME280;40783;49.710;8.842;2023-04-02T12:36:49;99226.81;;;7.27;100.00
52927;BME280;40783;49.710;8.842;2023-04-02T12:39:17;99231.00;;;7.20;100.00
52927;BME280;40783;49.710;8.842;2023-04-02T12:41:45;99234.03;;;7.16;100.00
52927;BME280;40783;49.710;8.842;2023-04-02T12:46:42;99237.75;;;7.34;100.00
52927;BME280;40783;49.710;8.842;2023-04-02T12:51:51;99244.56;;;7.17;100.00
52927;BME280;40783;49.710;8.842;2023-04-02T12:54:18;99251.38;;;7.10;100.00
52927;BME280;40783;49.710;8.842;2023-04-02T12:56:45;99250.06;;;7.25;100.00
52927;BME280;40783;49.710;8.842;2023-04-02T13:01:56;99260.88;;;7.34;100.00
52927;BME280;40783;49.710;8.842;2023-04-02T13:04:22;99265.69;;;7.19;100.00
52927;BME280;40783;49.710;8.842;2023-04-02T13:06:50;99271.34;;;7.25;100.00
52927;BME280;40783;49.710;8.842;2023-04-02T13:09:29;99272.56;;;6.90;100.00
52927;BME280;40783;49.710;8.842;2023-04-02T13:11:55;99277.09;;;7.00;100.00
52927;BME280;40783;49.710;8.842;2023-04-02T13:14:20;99281.09;;;7.15;100.00
52927;BME280;40783;49.710;8.842;2023-04-02T13:16:48;99279.13;;;7.17;100.00
52927;BME280;40783;49.710;8.842;2023-04-02T13:21:41;99277.97;;;7.10;100.00
52927;BME280;40783;49.710;8.842;2023-04-02T13:24:14;99274.78;;;7.16;100.00
52927;BME280;40783;49.710;8.842;2023-04-02T13:26:40;99290.03;;;7.14;100.00
52927;BME280;40783;49.710;8.842;2023-04-02T13:31:35;99284.56;;;7.16;100.00
52927;BME280;40783;49.710;8.842;2023-04-02T13:34:00;99289.22;;;7.13;100.00
52927;BME280;40783;49.710;8.842;2023-04-02T13:36:26;99286.84;;;7.20;100.00
52927;BME280;40783;49.710;8.842;2023-04-02T13:38:53;99290.66;;;7.27;100.00
52927;BME280;40783;49.710;8.842;2023-04-02T13:41:20;99298.47;;;7.19;100.00
52927;BME280;40783;49.710;8.842;2023-04-02T13:43:48;99297.56;;;7.09;100.00
52927;BME280;40783;49.710;8.842;2023-04-02T13:46:21;99303.94;;;6.96;100.00
52927;BME280;40783;49.710;8.842;2023-04-02T13:48:50;99304.09;;;6.95;100.00
52927;BME280;40783;49.710;8.842;2023-04-02T13:51:20;99310.94;;;6.97;100.00
52927;BME280;40783;49.710;8.842;2023-04-02T13:53:49;99300.25;;;6.88;100.00
52927;BME280;40783;49.710;8.842;2023-04-02T13:56:17;99317.06;;;6.88;100.00
52927;BME280;40783;49.710;8.842;2023-04-02T13:58:44;99314.84;;;6.93;100.00
52927;BME280;40783;49.710;8.842;2023-04-02T14:01:09;99321.84;;;6.94;100.00
52927;BME280;40783;49.710;8.842;2023-04-02T14:03:37;99322.28;;;7.00;100.00
52927;BME280;40783;49.710;8.842;2023-04-02T14:14:08;99338.97;;;6.80;100.00
52927;BME280;40783;49.710;8.842;2023-04-02T14:19:12;99353.13;;;6.81;100.00
52927;BME280;40783;49.710;8.842;2023-04-02T14:24:22;99353.13;;;6.81;100.00
52927;BME280;40783;49.710;8.842;2023-04-02T14:27:01;99365.19;;;6.85;100.00
52927;BME280;40783;49.710;8.842;2023-04-02T14:37:26;99364.72;;;7.01;100.00
52927;BME280;40783;49.710;8.842;2023-04-02T14:40:13;99375.09;;;6.83;100.00
52927;BME280;40783;49.710;8.842;2023-04-02T14:42:45;99368.69;;;6.53;100.00
52927;BME280;40783;49.710;8.842;2023-04-02T14:47:44;99384.75;;;6.19;100.00
52927;BME280;40783;49.710;8.842;2023-04-02T14:50:18;99383.78;;;6.08;100.00
52927;BME280;40783;49.710;8.842;2023-04-02T14:52:46;99388.28;;;6.08;100.00
52927;BME280;40783;49.710;8.842;2023-04-02T14:55:37;99391.03;;;6.18;100.00
52927;BME280;40783;49.710;8.842;2023-04-02T14:58:02;99392.81;;;6.17;100.00
52927;BME280;40783;49.710;8.842;2023-04-02T15:03:17;99395.97;;;6.00;100.00
52927;BME280;40783;49.710;8.842;2023-04-02T15:05:56;99405.97;;;5.96;100.00
52927;BME280;40783;49.710;8.842;2023-04-02T15:13:44;99411.78;;;5.90;100.00
52927;BME280;40783;49.710;8.842;2023-04-02T15:18:54;99415.63;;;5.86;100.00
52927;BME280;40783;49.710;8.842;2023-04-02T15:26:37;99421.94;;;5.73;100.00
52927;BME280;40783;49.710;8.842;2023-04-02T15:31:30;99441.72;;;5.69;100.00
52927;BME280;40783;49.710;8.842;2023-04-02T15:36:39;99434.84;;;5.55;100.00
52927;BME280;40783;49.710;8.842;2023-04-02T15:41:51;99446.03;;;5.59;100.00
52927;BME280;40783;49.710;8.842;2023-04-02T15:44:21;99446.75;;;5.49;100.00
52927;BME280;40783;49.710;8.842;2023-04-02T15:52:09;99453.72;;;5.39;100.00
52927;BME280;40783;49.710;8.842;2023-04-02T16:02:38;99468.16;;;5.35;100.00
52927;BME280;40783;49.710;8.842;2023-04-02T16:10:17;99486.50;;;5.27;100.00
52927;BME280;40783;49.710;8.842;2023-04-02T16:12:44;99482.16;;;5.37;100.00
52927;BME280;40783;49.710;8.842;2023-04-02T16:15:33;99486.75;;;5.46;100.00
52927;BME280;40783;49.710;8.842;2023-04-02T16:18:07;99489.19;;;5.49;100.00
52927;BME280;40783;49.710;8.842;2023-04-02T16:20:39;99498.09;;;5.48;100.00
52927;BME280;40783;49.710;8.842;2023-04-02T16:23:13;99494.72;;;5.46;100.00
52927;BME280;40783;49.710;8.842;2023-04-02T16:38:51;99532.09;;;5.43;100.00
52927;BME280;40783;49.710;8.842;2023-04-02T17:00:11;99559.53;;;5.31;100.00
52927;BME280;40783;49.710;8.842;2023-04-02T17:09:44;99594.81;;;5.20;100.00
52927;BME280;40783;49.710;8.842;2023-04-02T17:12:22;99597.81;;;5.15;100.00
52927;BME280;40783;49.710;8.842;2023-04-02T17:14:52;99602.25;;;5.15;100.00
52927;BME280;40783;49.710;8.842;2023-04-02T17:17:19;99603.84;;;5.17;100.00
52927;BME280;40783;49.710;8.842;2023-04-02T17:19:45;99605.25;;;5.10;100.00
52927;BME280;40783;49.710;8.842;2023-04-02T17:22:14;99614.16;;;5.09;100.00
52927;BME280;40783;49.710;8.842;2023-04-02T17:24:41;99617.38;;;5.01;100.00
52927;BME280;40783;49.710;8.842;2023-04-02T17:27:14;99623.69;;;5.12;100.00
52927;BME280;40783;49.710;8.842;2023-04-02T17:29:42;99626.66;;;5.07;100.00
52927;BME280;40783;49.710;8.842;2023-04-02T17:32:21;99639.41;;;5.02;100.00
52927;BME280;40783;49.710;8.842;2023-04-02T17:34:47;99642.34;;;5.10;100.00
52927;BME280;40783;49.710;8.842;2023-04-02T17:37:22;99658.69;;;5.04;100.00
52927;BME280;40783;49.710;8.842;2023-04-02T17:39:56;99657.44;;;4.97;100.00
52927;BME280;40783;49.710;8.842;2023-04-02T17:42:23;99653.84;;;4.98;100.00
52927;BME280;40783;49.710;8.842;2023-04-02T17:52:40;99667.22;;;4.83;100.00
52927;BME280;40783;49.710;8.842;2023-04-02T18:05:44;99703.78;;;4.78;100.00
52927;BME280;40783;49.710;8.842;2023-04-02T18:11:17;99714.91;;;4.83;100.00
52927;BME280;40783;49.710;8.842;2023-04-02T18:13:35;99715.59;;;4.74;100.00
52927;BME280;40783;49.710;8.842;2023-04-02T18:16:21;99724.69;;;4.70;100.00